Time;durP1;ratioP1;P1;durP2;ratioP2;P2;SDS_P1;SDS_P2;PMS_P1;PMS_P2;Temp;Humidity;BMP_temperature;BMP_pressure;BME280_temperature;BME280_humidity;BME280_pressure;Samples;Min_cycle;Max_cycle;Signal;HPM_P1;HPM_P2
2023/05/12 00:00:27;;;;;;;1.20;0.93;;;11.70;99.90;;;;;;5073729;28;20539;-80
2023/05/12 00:02:53;;;;;;;0.80;0.80;;;11.70;99.90;;;;;;5073255;28;20492;-79
2023/05/12 00:05:20;;;;;;;1.97;0.70;;;11.60;99.90;;;;;;5073647;28;20446;-79
2023/05/12 00:07:47;;;;;;;1.30;0.70;;;11.60;99.90;;;;;;5073717;28;20537;-79
2023/05/12 00:10:15;;;;;;;0.77;0.77;;;11.60;99.90;;;;;;5073718;28;20454;-79
2023/05/12 00:12:43;;;;;;;1.10;0.80;;;11.60;99.90;;;;;;5073483;28;20466;-80
2023/05/12 00:15:10;;;;;;;1.37;1.00;;;11.60;99.90;;;;;;5073468;28;20480;-79
2023/05/12 00:17:37;;;;;;;2.20;1.10;;;11.60;99.90;;;;;;5073442;28;20441;-80
2023/05/12 00:20:04;;;;;;;1.10;0.83;;;11.60;99.90;;;;;;5073196;28;20430;-79
2023/05/12 00:22:31;;;;;;;1.27;0.80;;;11.60;99.90;;;;;;5073090;28;20465;-80
2023/05/12 00:24:58;;;;;;;1.17;1.07;;;11.60;99.90;;;;;;5073424;28;20445;-79
2023/05/12 00:27:26;;;;;;;0.80;0.80;;;11.60;99.90;;;;;;5073538;28;20445;-80
2023/05/12 00:29:53;;;;;;;1.33;1.00;;;11.60;99.90;;;;;;5073138;28;20466;-80
2023/05/12 00:32:19;;;;;;;1.80;0.90;;;11.60;99.90;;;;;;5073010;28;20465;-80
2023/05/12 00:34:46;;;;;;;2.50;1.13;;;11.60;99.90;;;;;;5073445;28;20442;-80
2023/05/12 00:37:13;;;;;;;1.87;1.10;;;11.60;99.90;;;;;;5072995;28;20937;-80
2023/05/12 00:39:39;;;;;;;2.10;1.00;;;11.50;99.90;;;;;;5073244;28;20448;-80
2023/05/12 00:42:06;;;;;;;0.93;0.70;;;11.60;99.90;;;;;;5072890;28;20452;-80
2023/05/12 00:44:35;;;;;;;1.10;0.73;;;11.60;99.90;;;;;;5073238;28;20450;-80
2023/05/12 00:47:03;;;;;;;1.67;1.23;;;11.60;99.90;;;;;;5072849;28;20963;-80
2023/05/12 00:49:31;;;;;;;1.53;1.00;;;11.60;99.90;;;;;;5073969;28;20450;-80
2023/05/12 00:51:59;;;;;;;1.20;1.07;;;11.60;99.90;;;;;;5073061;28;20454;-80
2023/05/12 00:54:26;;;;;;;1.00;0.90;;;11.60;99.90;;;;;;5073200;28;20453;-80
2023/05/12 00:56:53;;;;;;;1.13;0.80;;;11.60;99.90;;;;;;5072731;28;20492;-80
2023/05/12 00:59:20;;;;;;;0.90;0.77;;;11.60;99.90;;;;;;5073140;28;20803;-80
2023/05/12 01:01:49;;;;;;;0.93;0.83;;;11.60;99.90;;;;;;5072884;28;20495;-80
2023/05/12 01:04:16;;;;;;;2.70;0.70;;;11.60;99.90;;;;;;5073050;28;20458;-80
2023/05/12 01:06:48;;;;;;;1.03;0.70;;;11.60;99.90;;;;;;5073252;28;20442;-79
2023/05/12 01:09:16;;;;;;;4.37;1.00;;;11.60;99.90;;;;;;5072773;28;20434;-80
2023/05/12 01:11:42;;;;;;;1.13;0.70;;;11.60;99.90;;;;;;5072680;28;20949;-80
2023/05/12 01:14:09;;;;;;;1.00;1.00;;;11.60;99.90;;;;;;5073775;28;20472;-80
2023/05/12 01:16:39;;;;;;;1.23;1.10;;;11.60;99.90;;;;;;5076457;28;20492;-80
2023/05/12 01:19:15;;;;;;;1.13;1.03;;;11.60;99.90;;;;;;5076817;28;20440;-80
2023/05/12 01:21:42;;;;;;;1.37;1.13;;;11.60;99.90;;;;;;5076697;28;20808;-80
2023/05/12 01:24:09;;;;;;;3.73;1.60;;;11.60;99.90;;;;;;5077138;28;20473;-80
2023/05/12 01:26:37;;;;;;;1.50;1.40;;;11.60;99.90;;;;;;5076258;28;20442;-80
2023/05/12 01:29:06;;;;;;;2.30;0.90;;;11.60;99.90;;;;;;5076533;28;20441;-80
2023/05/12 01:31:33;;;;;;;1.77;1.00;;;11.60;99.90;;;;;;5076481;28;20449;-80
2023/05/12 01:34:00;;;;;;;1.10;0.77;;;11.60;99.90;;;;;;5076346;28;20480;-80
2023/05/12 01:36:26;;;;;;;2.10;1.00;;;11.60;99.90;;;;;;5076017;28;21027;-80
2023/05/12 01:38:53;;;;;;;1.83;1.40;;;11.50;99.90;;;;;;5076347;28;20448;-80
2023/05/12 01:41:20;;;;;;;3.27;1.20;;;11.50;99.90;;;;;;5076294;28;20445;-80
2023/05/12 01:43:48;;;;;;;2.40;1.37;;;11.50;99.90;;;;;;5075931;28;20480;-80
2023/05/12 01:46:14;;;;;;;3.23;1.50;;;11.50;99.90;;;;;;5076245;28;20441;-80
2023/05/12 01:48:42;;;;;;;1.37;1.23;;;11.50;99.90;;;;;;5076162;28;20453;-80
2023/05/12 01:51:09;;;;;;;0.90;0.90;;;11.50;99.90;;;;;;5076149;28;20449;-79
2023/05/12 01:53:36;;;;;;;2.10;1.00;;;11.50;99.90;;;;;;5076083;28;20468;-80
2023/05/12 01:56:02;;;;;;;1.60;1.50;;;11.50;99.90;;;;;;5075998;28;20509;-79
2023/05/12 01:58:29;;;;;;;1.80;0.90;;;11.60;99.90;;;;;;5075989;28;20452;-80
2023/05/12 02:00:57;;;;;;;1.27;1.17;;;11.60;99.90;;;;;;5075980;28;20452;-80
2023/05/12 02:03:24;;;;;;;2.00;1.40;;;11.60;99.90;;;;;;5075857;28;20468;-79
2023/05/12 02:05:51;;;;;;;2.67;1.37;;;11.50;99.90;;;;;;5075858;28;20441;-80
2023/05/12 02:08:17;;;;;;;0.83;0.80;;;11.50;99.90;;;;;;5075517;28;20448;-80
2023/05/12 02:10:44;;;;;;;1.17;1.07;;;11.50;99.90;;;;;;5075821;28;20446;-80
2023/05/12 02:13:11;;;;;;;1.80;1.00;;;11.60;99.90;;;;;;5075377;28;20987;-80
2023/05/12 02:15:37;;;;;;;1.47;1.30;;;11.50;99.90;;;;;;5075629;28;20477;-80
2023/05/12 02:18:06;;;;;;;4.30;1.83;;;11.60;99.90;;;;;;5075713;28;20467;-80
2023/05/12 02:20:33;;;;;;;4.50;1.80;;;11.60;99.90;;;;;;5075595;28;20544;-80
2023/05/12 02:23:01;;;;;;;2.03;1.80;;;11.60;99.90;;;;;;5075510;28;20492;-80
2023/05/12 02:25:28;;;;;;;3.13;1.77;;;11.60;99.90;;;;;;5074522;28;20444;-80
2023/05/12 02:27:55;;;;;;;9.03;2.03;;;11.50;99.90;;;;;;5075355;28;20816;-80
2023/05/12 02:30:21;;;;;;;3.30;1.30;;;11.60;99.90;;;;;;5075428;28;20450;-80
2023/05/12 02:32:48;;;;;;;4.87;2.40;;;11.60;99.90;;;;;;5075053;28;20468;-80
2023/05/12 02:35:16;;;;;;;4.90;2.20;;;11.60;99.90;;;;;;5075501;28;20453;-80
2023/05/12 02:37:43;;;;;;;4.93;2.00;;;11.50;99.90;;;;;;5074989;28;20854;-80
2023/05/12 02:40:10;;;;;;;2.13;1.63;;;11.50;99.90;;;;;;5075201;28;20456;-80
2023/05/12 02:42:38;;;;;;;3.90;1.73;;;11.50;99.90;;;;;;5075117;28;20466;-80
2023/05/12 02:45:05;;;;;;;3.67;1.57;;;11.50;99.90;;;;;;5075141;28;20450;-80
2023/05/12 02:47:32;;;;;;;5.23;2.13;;;11.50;99.90;;;;;;5075108;28;20449;-80
2023/05/12 02:49:59;;;;;;;5.23;2.30;;;11.50;99.90;;;;;;5075030;28;20455;-80
2023/05/12 02:52:27;;;;;;;5.07;2.27;;;11.50;99.90;;;;;;5074959;28;20477;-79
2023/05/12 02:54:54;;;;;;;5.87;2.20;;;11.50;99.90;;;;;;5075043;28;20445;-80
2023/05/12 02:57:21;;;;;;;5.30;3.30;;;11.50;99.90;;;;;;5075050;28;20481;-80
2023/05/12 02:59:48;;;;;;;6.70;2.57;;;11.50;99.90;;;;;;5074519;28;20819;-80
2023/05/12 03:02:15;;;;;;;1.67;1.47;;;11.50;99.90;;;;;;5074401;28;20488;-80
2023/05/12 03:04:41;;;;;;;6.37;2.50;;;11.50;99.90;;;;;;5074950;28;20446;-80
2023/05/12 03:07:09;;;;;;;3.83;2.47;;;11.50;99.90;;;;;;5074703;28;20438;-79
2023/05/12 03:09:37;;;;;;;4.77;2.43;;;11.50;99.90;;;;;;5074660;28;20442;-80
2023/05/12 03:12:04;;;;;;;4.73;2.60;;;11.50;99.90;;;;;;5074488;28;20454;-79
2023/05/12 03:14:31;;;;;;;3.80;1.90;;;11.50;99.90;;;;;;5074254;28;20963;-80
2023/05/12 03:16:58;;;;;;;4.43;2.10;;;11.50;99.90;;;;;;5074490;28;20527;-80
2023/05/12 03:19:26;;;;;;;3.90;1.50;;;11.50;99.90;;;;;;5074462;28;20452;-80
2023/05/12 03:21:53;;;;;;;3.90;1.93;;;11.50;99.90;;;;;;5073995;28;20964;-80
2023/05/12 03:24:20;;;;;;;5.33;2.70;;;11.50;99.90;;;;;;5074132;28;20457;-80
2023/05/12 03:26:48;;;;;;;3.43;1.83;;;11.50;99.90;;;;;;5074342;28;20454;-80
2023/05/12 03:29:15;;;;;;;3.17;1.70;;;11.50;99.90;;;;;;5074531;28;20450;-80
2023/05/12 03:31:41;;;;;;;5.53;2.03;;;11.50;99.90;;;;;;5074160;28;20449;-80
2023/05/12 03:34:08;;;;;;;5.67;2.70;;;11.60;99.90;;;;;;5074080;28;21023;-80
2023/05/12 03:36:36;;;;;;;2.70;2.03;;;11.60;99.90;;;;;;5073923;28;20481;-80
2023/05/12 03:39:03;;;;;;;2.57;1.50;;;11.60;99.90;;;;;;5074056;28;20461;-80
2023/05/12 03:41:30;;;;;;;4.63;2.40;;;11.60;99.90;;;;;;5074012;28;20452;-80
2023/05/12 03:43:58;;;;;;;4.23;2.37;;;11.60;99.90;;;;;;5073787;28;20992;-80
2023/05/12 03:46:25;;;;;;;3.87;2.77;;;11.50;99.90;;;;;;5074217;28;20442;-80
2023/05/12 03:48:52;;;;;;;5.07;2.50;;;11.50;99.90;;;;;;5073927;28;20450;-80
2023/05/12 03:51:19;;;;;;;5.63;2.60;;;11.60;99.90;;;;;;5073838;28;20446;-80
2023/05/12 03:53:46;;;;;;;8.73;3.43;;;11.50;99.90;;;;;;5073476;28;20469;-80
2023/05/12 03:56:14;;;;;;;7.37;2.93;;;11.50;99.90;;;;;;5073388;28;20572;-80
2023/05/12 03:58:41;;;;;;;7.63;3.70;;;11.50;99.90;;;;;;5073717;28;20476;-80
2023/05/12 04:01:09;;;;;;;5.17;2.57;;;11.50;99.90;;;;;;5073496;28;20448;-80
2023/05/12 04:03:36;;;;;;;4.70;2.37;;;11.50;99.90;;;;;;5073669;28;20469;-80
2023/05/12 04:06:03;;;;;;;5.57;2.33;;;11.50;99.90;;;;;;5073606;28;20482;-80
2023/05/12 04:08:31;;;;;;;4.80;3.20;;;11.50;99.90;;;;;;5073588;28;20449;-80
2023/05/12 04:10:59;;;;;;;2.97;2.07;;;11.50;99.90;;;;;;5073593;28;20438;-80
2023/05/12 04:13:27;;;;;;;6.43;2.10;;;11.50;99.90;;;;;;5073146;28;21004;-80
2023/05/12 04:15:55;;;;;;;8.67;3.13;;;11.50;99.90;;;;;;5073194;28;20444;-80
2023/05/12 04:18:24;;;;;;;4.37;2.23;;;11.50;99.90;;;;;;5073476;28;20454;-80
2023/05/12 04:20:50;;;;;;;2.30;2.10;;;11.50;99.90;;;;;;5073429;28;20450;-80
2023/05/12 04:23:17;;;;;;;4.83;2.17;;;11.50;99.90;;;;;;5073085;28;20472;-80
2023/05/12 04:25:44;;;;;;;3.73;1.90;;;11.50;99.90;;;;;;5073356;28;20445;-80
2023/05/12 04:28:11;;;;;;;4.73;2.00;;;11.40;99.90;;;;;;5073336;28;20441;-80
2023/05/12 04:30:39;;;;;;;5.10;1.90;;;11.40;99.90;;;;;;5073330;28;20450;-80
2023/05/12 04:33:06;;;;;;;2.20;1.30;;;11.40;99.90;;;;;;5073124;28;20826;-80
2023/05/12 04:35:35;;;;;;;5.17;2.43;;;11.40;99.90;;;;;;5073470;28;20434;-80
2023/05/12 04:38:02;;;;;;;3.67;1.73;;;11.40;99.90;;;;;;5073164;28;20494;-80
2023/05/12 04:40:29;;;;;;;5.67;2.53;;;11.40;99.90;;;;;;5073297;28;20449;-80
2023/05/12 04:42:55;;;;;;;4.50;2.13;;;11.40;99.90;;;;;;5072906;28;20996;-80
2023/05/12 04:45:22;;;;;;;4.17;2.60;;;11.40;99.90;;;;;;5073490;28;20460;-80
2023/05/12 04:47:49;;;;;;;3.33;1.90;;;11.50;99.90;;;;;;5073229;28;20442;-80
2023/05/12 04:50:15;;;;;;;5.10;2.60;;;11.50;99.90;;;;;;5076047;28;20452;-80
2023/05/12 04:52:44;;;;;;;5.10;2.50;;;11.50;99.90;;;;;;5076948;28;21015;-80
2023/05/12 04:55:10;;;;;;;4.80;2.13;;;11.50;99.90;;;;;;5077412;28;20448;-81
2023/05/12 04:57:40;;;;;;;5.30;2.77;;;11.60;99.90;;;;;;5077352;28;20492;-81
2023/05/12 05:00:08;;;;;;;6.10;3.27;;;11.60;99.90;;;;;;5077173;28;20506;-80
2023/05/12 05:02:34;;;;;;;2.40;1.73;;;11.60;99.90;;;;;;5076732;28;20481;-80
2023/05/12 05:05:01;;;;;;;7.57;3.13;;;11.60;99.90;;;;;;5077033;28;20461;-81
2023/05/12 05:07:28;;;;;;;5.30;3.50;;;11.60;99.90;;;;;;5076997;28;20441;-81
2023/05/12 05:09:56;;;;;;;3.90;2.20;;;11.60;99.90;;;;;;5076613;28;20457;-80
2023/05/12 05:12:23;;;;;;;2.67;1.80;;;11.60;99.90;;;;;;5076882;28;20476;-80
2023/05/12 05:14:50;;;;;;;3.97;2.30;;;11.60;99.90;;;;;;5076510;28;20945;-80
2023/05/12 05:17:16;;;;;;;3.27;2.20;;;11.60;99.90;;;;;;5076708;28;20485;-80
2023/05/12 05:19:43;;;;;;;5.30;2.20;;;11.60;99.90;;;;;;5076778;28;20782;-80
2023/05/12 05:22:10;;;;;;;5.20;2.60;;;11.60;99.90;;;;;;5076565;28;20803;-80
2023/05/12 05:24:37;;;;;;;7.97;3.00;;;11.60;99.90;;;;;;5076649;28;20532;-81
2023/05/12 05:27:05;;;;;;;4.67;3.20;;;11.70;99.90;;;;;;5076318;28;20933;-81
2023/05/12 05:29:32;;;;;;;4.40;2.10;;;11.70;99.90;;;;;;5076589;28;20445;-80
2023/05/12 05:31:59;;;;;;;4.50;2.53;;;11.70;99.90;;;;;;5076426;28;20449;-81
2023/05/12 05:34:26;;;;;;;1.90;1.27;;;11.80;99.90;;;;;;5076459;28;20449;-81
2023/05/12 05:36:53;;;;;;;4.97;2.33;;;11.80;99.90;;;;;;5076185;28;20481;-80
2023/05/12 05:39:20;;;;;;;4.60;1.80;;;11.90;99.90;;;;;;5076413;28;20449;-80
2023/05/12 05:41:46;;;;;;;2.47;1.50;;;11.90;99.90;;;;;;5076539;28;20457;-80
2023/05/12 05:44:15;;;;;;;1.43;1.17;;;11.90;99.90;;;;;;5076281;28;20465;-80
2023/05/12 05:46:41;;;;;;;5.87;2.73;;;12.00;99.90;;;;;;5076478;28;20441;-80
2023/05/12 05:49:08;;;;;;;4.00;2.07;;;12.00;99.90;;;;;;5075931;28;20444;-81
2023/05/12 05:51:35;;;;;;;2.93;2.00;;;12.00;99.90;;;;;;5076116;28;20450;-81
2023/05/12 05:54:01;;;;;;;3.53;2.60;;;11.90;99.90;;;;;;5075818;28;20449;-81
2023/05/12 05:56:29;;;;;;;2.03;1.53;;;12.00;99.90;;;;;;5076023;28;20481;-80
2023/05/12 05:58:56;;;;;;;3.27;2.37;;;12.00;99.90;;;;;;5075992;28;20483;-80
2023/05/12 06:01:24;;;;;;;3.90;2.23;;;12.00;99.90;;;;;;5075760;28;20530;-82
2023/05/12 06:03:51;;;;;;;2.97;1.93;;;12.10;99.90;;;;;;5076015;28;20469;-81
2023/05/12 06:06:17;;;;;;;2.80;2.53;;;12.10;99.90;;;;;;5075824;28;20442;-81
2023/05/12 06:08:44;;;;;;;3.93;1.77;;;12.20;99.90;;;;;;5075547;28;20953;-81
2023/05/12 06:11:11;;;;;;;3.03;1.93;;;12.20;99.90;;;;;;5075760;28;20441;-81
2023/05/12 06:13:38;;;;;;;3.33;2.33;;;12.20;99.90;;;;;;5075728;28;20497;-81
2023/05/12 06:16:05;;;;;;;2.53;1.70;;;12.20;99.90;;;;;;5075514;28;20438;-81
2023/05/12 06:18:36;;;;;;;2.07;1.43;;;12.20;99.90;;;;;;5075593;28;20484;-81
2023/05/12 06:21:03;;;;;;;1.97;1.33;;;12.30;99.90;;;;;;5075681;28;20442;-81
2023/05/12 06:23:30;;;;;;;2.53;1.30;;;12.30;99.90;;;;;;5075496;28;20477;-81
2023/05/12 06:25:57;;;;;;;2.40;1.33;;;12.30;99.90;;;;;;5075558;28;20452;-81
2023/05/12 06:28:23;;;;;;;4.30;1.57;;;12.20;99.90;;;;;;5075631;28;20442;-81
2023/05/12 06:30:50;;;;;;;4.20;1.50;;;12.30;99.90;;;;;;5075415;28;20441;-81
2023/05/12 06:33:17;;;;;;;4.23;1.50;;;12.40;99.90;;;;;;5075494;28;20469;-81
2023/05/12 06:35:45;;;;;;;1.80;1.33;;;12.40;99.90;;;;;;5075511;28;20445;-81
2023/05/12 06:38:12;;;;;;;2.23;1.70;;;12.50;99.90;;;;;;5075257;28;20481;-81
2023/05/12 06:40:38;;;;;;;3.10;1.43;;;12.60;99.90;;;;;;5075296;28;20449;-81
2023/05/12 06:43:06;;;;;;;1.47;0.90;;;12.50;99.90;;;;;;5075172;28;20496;-82
2023/05/12 06:45:32;;;;;;;2.50;1.23;;;12.60;99.90;;;;;;5075180;28;20507;-80
2023/05/12 06:48:00;;;;;;;1.97;1.00;;;12.70;99.90;;;;;;5075147;28;20453;-80
2023/05/12 06:50:27;;;;;;;1.43;1.30;;;12.80;99.90;;;;;;5075096;28;20448;-80
2023/05/12 06:52:55;;;;;;;1.23;1.00;;;12.90;99.90;;;;;;5074680;28;20464;-80
2023/05/12 06:55:22;;;;;;;1.80;1.00;;;13.10;99.90;;;;;;5074707;28;20445;-80
2023/05/12 06:57:54;;;;;;;1.57;0.97;;;13.20;99.90;;;;;;5075001;28;20511;-79
2023/05/12 07:00:21;;;;;;;0.70;0.70;;;13.20;99.90;;;;;;5074661;28;20446;-80
2023/05/12 07:02:48;;;;;;;1.80;1.13;;;13.30;99.90;;;;;;5074279;28;20984;-80
2023/05/12 07:05:15;;;;;;;1.70;1.00;;;13.30;99.90;;;;;;5074792;28;20825;-80
2023/05/12 07:07:42;;;;;;;3.77;1.27;;;13.30;99.90;;;;;;5074468;28;20937;-80
2023/05/12 07:10:10;;;;;;;1.60;1.43;;;13.40;99.90;;;;;;5074693;28;20441;-80
2023/05/12 07:12:38;;;;;;;1.73;0.87;;;13.40;99.90;;;;;;5073932;28;20470;-80
2023/05/12 07:15:06;;;;;;;2.20;1.27;;;13.40;99.90;;;;;;5074848;28;20548;-80
2023/05/12 07:17:32;;;;;;;2.60;0.90;;;13.50;99.90;;;;;;5074396;28;20478;-80
2023/05/12 07:19:59;;;;;;;1.20;1.10;;;13.60;99.90;;;;;;5074165;28;20949;-79
2023/05/12 07:22:26;;;;;;;1.33;1.17;;;13.80;99.90;;;;;;5074361;28;20527;-79
2023/05/12 07:24:53;;;;;;;1.30;1.20;;;14.00;99.90;;;;;;5074341;28;20449;-79
2023/05/12 07:27:21;;;;;;;2.40;1.30;;;14.20;99.90;;;;;;5074504;28;20446;-80
2023/05/12 07:29:48;;;;;;;2.00;1.00;;;14.30;99.90;;;;;;5074167;28;20945;-80
2023/05/12 07:32:15;;;;;;;1.30;1.07;;;14.50;99.90;;;;;;5074181;28;20465;-80
2023/05/12 07:34:41;;;;;;;1.20;1.10;;;14.50;99.90;;;;;;5073988;28;20461;-80
2023/05/12 07:37:08;;;;;;;0.80;0.60;;;14.60;99.90;;;;;;5074344;28;20452;-80
2023/05/12 07:39:35;;;;;;;1.43;0.90;;;14.50;99.90;;;;;;5074107;28;20453;-80
2023/05/12 07:42:02;;;;;;;0.93;0.93;;;14.50;99.90;;;;;;5074105;28;20445;-80
2023/05/12 07:44:32;;;;;;;1.70;0.87;;;14.40;99.90;;;;;;5074126;28;20446;-80
2023/05/12 07:46:58;;;;;;;2.00;1.40;;;14.30;99.90;;;;;;5073701;28;20902;-80
2023/05/12 07:49:25;;;;;;;0.87;0.70;;;14.30;99.90;;;;;;5073948;28;20921;-80
2023/05/12 07:51:52;;;;;;;1.40;0.80;;;14.40;99.90;;;;;;5073691;28;20958;-80
2023/05/12 07:54:19;;;;;;;1.47;0.90;;;14.60;99.90;;;;;;5073879;28;20452;-80
2023/05/12 07:56:45;;;;;;;1.13;0.70;;;15.00;99.90;;;;;;5073646;28;20496;-79
2023/05/12 07:59:13;;;;;;;1.50;1.40;;;15.10;99.90;;;;;;5073423;28;21008;-79
2023/05/12 08:01:41;;;;;;;2.00;1.17;;;15.00;99.90;;;;;;5073454;28;20539;-79
2023/05/12 08:04:08;;;;;;;2.47;1.30;;;15.00;99.90;;;;;;5073568;28;20473;-80
2023/05/12 08:06:35;;;;;;;1.20;0.93;;;14.90;99.90;;;;;;5073669;28;20452;-79
2023/05/12 08:09:02;;;;;;;1.87;1.33;;;14.90;99.90;;;;;;5073632;28;20454;-79
2023/05/12 08:11:29;;;;;;;1.77;1.13;;;14.80;99.90;;;;;;5073611;28;20449;-79
2023/05/12 08:13:55;;;;;;;0.60;0.60;;;14.70;99.90;;;;;;5073547;28;20608;-79
2023/05/12 08:16:22;;;;;;;1.07;1.00;;;14.70;99.90;;;;;;5073523;28;20453;-79
2023/05/12 08:18:50;;;;;;;0.80;0.80;;;14.90;99.90;;;;;;5073134;28;21022;-79
2023/05/12 08:21:17;;;;;;;2.50;0.50;;;15.10;99.90;;;;;;5073494;28;20449;-79
2023/05/12 08:23:44;;;;;;;0.80;0.80;;;15.20;99.90;;;;;;5072189;28;20842;-80
2023/05/12 08:26:11;;;;;;;1.70;1.00;;;15.20;99.90;;;;;;5073154;28;20464;-79
2023/05/12 08:28:38;;;;;;;1.23;0.90;;;15.10;99.90;;;;;;5073436;28;20449;-79
2023/05/12 08:31:04;;;;;;;1.33;0.93;;;15.10;99.90;;;;;;5073435;28;20468;-79
2023/05/12 08:33:31;;;;;;;2.53;1.27;;;15.00;99.90;;;;;;5073298;28;20470;-79
2023/05/12 08:36:00;;;;;;;1.20;0.90;;;14.80;99.90;;;;;;5073390;28;20473;-79
2023/05/12 08:38:28;;;;;;;1.00;0.90;;;14.80;99.90;;;;;;5072954;28;20490;-79
2023/05/12 08:41:05;;;;;;;0.60;0.50;;;14.80;99.90;;;;;;5072994;28;20515;-80
2023/05/12 08:43:39;;;;;;;0.63;0.53;;;14.80;99.90;;;;;;5073239;28;20469;-80
2023/05/12 08:46:06;;;;;;;0.80;0.70;;;14.80;99.90;;;;;;5073178;28;20932;-80
2023/05/12 08:48:34;;;;;;;1.30;1.20;;;14.80;99.90;;;;;;5072894;28;20458;-80
2023/05/12 08:51:03;;;;;;;0.63;0.63;;;14.70;99.90;;;;;;5073177;28;20518;-80
2023/05/12 08:53:32;;;;;;;0.90;0.80;;;14.70;99.90;;;;;;5073095;28;20473;-80
2023/05/12 08:56:02;;;;;;;1.40;0.67;;;14.70;99.90;;;;;;5073149;28;20450;-80
2023/05/12 08:58:30;;;;;;;2.00;1.30;;;14.80;99.90;;;;;;5073120;28;20476;-80
2023/05/12 09:00:59;;;;;;;2.10;0.80;;;14.80;99.90;;;;;;5073287;28;20457;-80
2023/05/12 09:03:27;;;;;;;0.60;0.60;;;14.90;99.90;;;;;;5073172;28;20468;-80
2023/05/12 09:05:57;;;;;;;0.70;0.70;;;15.10;99.90;;;;;;5072773;28;20832;-80
2023/05/12 09:08:26;;;;;;;1.10;0.80;;;15.20;99.90;;;;;;5072721;28;20941;-79
2023/05/12 09:10:56;;;;;;;1.03;1.00;;;15.40;99.90;;;;;;5073026;28;20445;-80
2023/05/12 09:13:28;;;;;;;1.10;0.73;;;15.40;99.90;;;;;;5073679;28;20621;-80
2023/05/12 09:15:57;;;;;;;1.10;0.73;;;15.40;99.90;;;;;;5073018;28;20429;-80
2023/05/12 09:18:24;;;;;;;1.00;0.80;;;15.40;99.90;;;;;;5072529;28;20914;-80
2023/05/12 09:20:51;;;;;;;1.43;1.00;;;15.20;99.90;;;;;;5072909;28;20449;-80
2023/05/12 09:23:18;;;;;;;0.60;0.60;;;15.00;99.90;;;;;;5072835;28;20477;-80
2023/05/12 09:25:47;;;;;;;0.80;0.80;;;14.90;99.90;;;;;;5072536;28;20445;-80
2023/05/12 09:28:14;;;;;;;0.60;0.60;;;14.70;99.90;;;;;;5072850;28;20445;-80
2023/05/12 09:30:41;;;;;;;1.60;1.03;;;14.50;99.90;;;;;;5072808;28;20457;-80
2023/05/12 09:33:09;;;;;;;1.03;0.80;;;14.40;99.90;;;;;;5072753;28;20476;-80
2023/05/12 09:35:40;;;;;;;0.90;0.90;;;14.40;99.90;;;;;;5074316;28;20457;-80
2023/05/12 09:38:08;;;;;;;1.57;0.50;;;14.30;99.90;;;;;;5076209;28;21027;-80
2023/05/12 09:40:35;;;;;;;0.80;0.70;;;14.30;99.90;;;;;;5076397;28;20445;-80
2023/05/12 09:43:03;;;;;;;0.90;0.60;;;14.40;99.90;;;;;;5075998;28;20889;-80
2023/05/12 09:45:34;;;;;;;1.10;1.00;;;14.50;99.90;;;;;;5076342;28;20473;-80
2023/05/12 09:48:09;;;;;;;0.67;0.57;;;14.60;99.90;;;;;;5077094;28;20433;-80
2023/05/12 09:50:43;;;;;;;1.10;0.50;;;14.80;99.90;;;;;;5076460;28;20429;-80
2023/05/12 09:53:09;;;;;;;0.80;0.63;;;15.10;99.90;;;;;;5075943;28;20461;-80
2023/05/12 09:55:36;;;;;;;0.67;0.67;;;15.20;99.90;;;;;;5076321;28;20452;-80
2023/05/12 09:58:08;;;;;;;0.70;0.70;;;15.20;99.90;;;;;;5075873;28;20485;-80
2023/05/12 10:00:37;;;;;;;1.03;0.77;;;15.20;99.90;;;;;;5075785;28;20438;-80
2023/05/12 10:03:09;;;;;;;0.60;0.43;;;15.20;99.90;;;;;;5075715;28;20515;-79
2023/05/12 10:05:43;;;;;;;1.07;0.60;;;15.20;99.90;;;;;;5075911;28;20438;-79
2023/05/12 10:08:14;;;;;;;1.43;0.83;;;15.20;99.90;;;;;;5075995;28;20425;-79
2023/05/12 10:10:41;;;;;;;0.97;0.70;;;15.10;99.90;;;;;;5076980;28;20450;-80
2023/05/12 10:13:13;;;;;;;1.40;1.07;;;15.00;99.90;;;;;;5075791;28;20472;-80
2023/05/12 10:15:40;;;;;;;0.70;0.70;;;15.00;99.90;;;;;;5075906;28;20442;-80
2023/05/12 10:18:08;;;;;;;1.00;0.87;;;15.10;99.90;;;;;;5075735;28;20488;-81
2023/05/12 10:20:36;;;;;;;0.70;0.70;;;15.20;99.90;;;;;;5075693;28;20510;-81
2023/05/12 10:23:05;;;;;;;1.37;0.87;;;15.40;99.90;;;;;;5075934;28;20472;-80
2023/05/12 10:25:33;;;;;;;0.80;0.60;;;15.60;99.90;;;;;;5075713;28;20457;-80
2023/05/12 10:28:02;;;;;;;0.80;0.80;;;15.80;99.90;;;;;;5075652;28;20429;-81
2023/05/12 10:30:31;;;;;;;2.23;0.67;;;15.90;99.90;;;;;;5075572;28;20457;-81
2023/05/12 10:32:58;;;;;;;0.47;0.47;;;16.00;99.90;;;;;;5075161;28;20564;-81
2023/05/12 10:35:32;;;;;;;2.60;1.23;;;15.90;99.90;;;;;;5075456;28;20536;-81
2023/05/12 10:38:02;;;;;;;0.70;0.63;;;15.90;99.90;;;;;;5075403;28;20528;-81
2023/05/12 10:40:29;;;;;;;3.63;1.97;;;16.00;99.90;;;;;;5075601;28;20453;-81
2023/05/12 10:42:59;;;;;;;0.80;0.80;;;16.00;99.90;;;;;;5075314;28;20465;-81
2023/05/12 10:45:26;;;;;;;0.80;0.80;;;16.10;99.90;;;;;;5075285;28;20438;-81
2023/05/12 10:48:05;;;;;;;0.70;0.70;;;16.10;99.90;;;;;;5074015;28;20458;-81
2023/05/12 10:50:32;;;;;;;0.60;0.50;;;16.10;99.90;;;;;;5075224;28;20436;-80
2023/05/12 10:52:59;;;;;;;0.90;0.90;;;16.10;99.90;;;;;;5074664;28;20518;-81
2023/05/12 10:55:35;;;;;;;2.40;1.03;;;16.00;99.90;;;;;;5075016;28;20438;-81
2023/05/12 10:58:07;;;;;;;1.47;1.07;;;15.90;99.90;;;;;;5075396;28;20937;-80
2023/05/12 11:00:44;;;;;;;1.47;0.70;;;15.80;99.90;;;;;;5075016;28;20541;-81
2023/05/12 11:03:16;;;;;;;1.10;0.90;;;15.80;99.90;;;;;;5074827;28;20481;-80
2023/05/12 11:05:45;;;;;;;1.77;1.27;;;15.70;99.90;;;;;;5074864;28;20441;-80
2023/05/12 11:08:12;;;;;;;0.87;0.70;;;15.60;99.90;;;;;;5074512;28;20449;-80
2023/05/12 11:10:41;;;;;;;1.00;0.73;;;15.50;99.90;;;;;;5074769;28;20468;-80
2023/05/12 11:13:08;;;;;;;1.03;0.63;;;15.50;99.90;;;;;;5074596;28;20465;-80
2023/05/12 11:15:34;;;;;;;1.97;1.30;;;15.60;99.90;;;;;;5074675;28;20445;-81
2023/05/12 11:18:02;;;;;;;1.43;1.07;;;15.60;99.90;;;;;;5074519;28;20449;-81
2023/05/12 11:20:31;;;;;;;1.10;0.80;;;15.70;99.90;;;;;;5074563;28;20430;-80
2023/05/12 11:22:58;;;;;;;0.80;0.70;;;15.60;99.90;;;;;;5074093;28;21084;-81
2023/05/12 11:25:26;;;;;;;1.97;0.80;;;15.50;99.90;;;;;;5074465;28;20449;-81
2023/05/12 11:27:53;;;;;;;1.67;1.07;;;15.40;99.90;;;;;;5074452;28;20453;-81
2023/05/12 11:30:20;;;;;;;1.73;0.77;;;15.30;99.90;;;;;;5074441;28;20448;-81
2023/05/12 11:32:47;;;;;;;0.90;0.73;;;15.20;99.90;;;;;;5074238;28;20867;-81
2023/05/12 11:35:15;;;;;;;1.53;1.10;;;15.20;99.90;;;;;;5073971;28;20945;-80
2023/05/12 11:37:45;;;;;;;0.80;0.80;;;15.20;99.90;;;;;;5074178;28;20446;-81
2023/05/12 11:40:17;;;;;;;1.33;0.93;;;15.30;99.90;;;;;;5073796;28;20488;-81
2023/05/12 11:42:47;;;;;;;1.60;0.70;;;15.30;99.90;;;;;;5074079;28;20465;-81
2023/05/12 11:45:25;;;;;;;1.00;0.70;;;15.30;99.90;;;;;;5073910;28;20453;-80
2023/05/12 11:47:52;;;;;;;1.57;1.47;;;15.30;99.90;;;;;;5074049;28;20442;-81
2023/05/12 11:50:24;;;;;;;0.80;0.80;;;15.40;99.90;;;;;;5073936;28;20441;-80
2023/05/12 11:52:53;;;;;;;1.27;0.90;;;15.40;99.90;;;;;;5074691;28;20462;-80
2023/05/12 11:55:23;;;;;;;1.13;0.90;;;15.50;99.90;;;;;;5073832;28;20454;-81
2023/05/12 11:57:58;;;;;;;1.10;0.80;;;15.50;99.90;;;;;;5073652;28;20499;-81
2023/05/12 12:00:30;;;;;;;0.83;0.83;;;15.50;99.90;;;;;;5073704;28;20488;-81
2023/05/12 12:03:07;;;;;;;1.00;0.90;;;15.60;99.90;;;;;;5073445;28;20484;-81
2023/05/12 12:05:34;;;;;;;1.03;0.93;;;15.60;99.90;;;;;;5073700;28;20460;-81
2023/05/12 12:08:11;;;;;;;1.40;1.03;;;15.60;99.90;;;;;;5073354;28;20438;-80
2023/05/12 12:10:38;;;;;;;4.20;1.00;;;15.60;99.90;;;;;;5073367;28;20833;-80
2023/05/12 12:13:06;;;;;;;1.73;1.10;;;15.60;99.90;;;;;;5073567;28;20481;-81
2023/05/12 12:15:32;;;;;;;1.50;1.03;;;15.60;99.90;;;;;;5073281;28;20450;-80
2023/05/12 12:17:59;;;;;;;1.30;1.00;;;15.40;99.90;;;;;;5073265;28;20975;-81
2023/05/12 12:20:26;;;;;;;1.53;0.80;;;15.20;99.90;;;;;;5073381;28;20480;-81
2023/05/12 12:22:53;;;;;;;1.03;0.77;;;15.00;99.90;;;;;;5073434;28;20480;-80
2023/05/12 12:25:22;;;;;;;1.53;1.10;;;14.80;99.90;;;;;;5073681;28;20450;-80
2023/05/12 12:27:49;;;;;;;1.30;1.20;;;14.70;99.90;;;;;;5073448;28;20829;-81
2023/05/12 12:30:16;;;;;;;1.30;0.93;;;14.60;99.90;;;;;;5073383;28;20536;-80
2023/05/12 12:32:44;;;;;;;2.70;1.60;;;14.40;99.90;;;;;;5073303;28;20473;-80
2023/05/12 12:35:12;;;;;;;0.60;0.60;;;14.30;99.90;;;;;;5073031;28;20445;-80
2023/05/12 12:37:39;;;;;;;1.27;0.70;;;14.30;99.90;;;;;;5073058;28;20449;-80
2023/05/12 12:40:08;;;;;;;0.60;0.60;;;14.40;99.90;;;;;;5073761;28;20476;-80
2023/05/12 12:42:39;;;;;;;0.90;0.60;;;14.50;99.90;;;;;;5072880;28;20480;-80
2023/05/12 12:45:08;;;;;;;0.67;0.50;;;14.60;99.90;;;;;;5073415;28;20446;-80
2023/05/12 12:47:36;;;;;;;0.90;0.53;;;14.80;99.90;;;;;;5073279;28;20484;-80
2023/05/12 12:50:03;;;;;;;0.67;0.40;;;14.80;99.90;;;;;;5073250;28;20445;-81